Time;durP1;ratioP1;P1;durP2;ratioP2;P2;SDS_P1;SDS_P2;PMS_P1;PMS_P2;Temp;Humidity;BMP_temperature;BMP_pressure;BME280_temperature;BME280_humidity;BME280_pressure;Samples;Min_cycle;Max_cycle;Signal;HPM_P1;HPM_P2
2023/07/11 04:57:43;;;;;;;;;5.00;5.00;;;;;29.27;35.33;101096.53;5093151;27;45352;-67
2023/07/11 05:00:09;;;;;;;;;6.50;6.50;;;;;29.72;34.53;101090.19;5076420;27;45316;-66
2023/07/11 05:02:35;;;;;;;;;4.25;4.25;;;;;30.10;34.26;101095.75;5075701;27;45447;-66
2023/07/11 05:05:00;;;;;;;;;5.50;5.50;;;;;30.24;33.27;101094.03;5075185;27;57262;-66
2023/07/11 05:07:25;;;;;;;;;6.00;6.00;;;;;30.38;33.08;101094.00;5075785;27;49924;-66
2023/07/11 05:09:50;;;;;;;;;6.75;4.50;;;;;30.35;32.69;101088.03;5076122;27;45271;-66
2023/07/11 05:12:16;;;;;;;;;5.50;5.50;;;;;30.46;33.24;101090.28;5075696;27;50050;-67
2023/07/11 05:14:41;;;;;;;;;7.25;5.25;;;;;30.61;33.33;101099.50;5075422;28;55359;-66
2023/07/11 05:17:06;;;;;;;;;5.00;5.00;;;;;30.58;32.69;101104.56;5074959;27;45627;-66
2023/07/11 05:19:32;;;;;;;;;5.75;3.00;;;;;30.44;33.45;101097.94;5075847;27;45259;-65
2023/07/11 05:21:57;;;;;;;;;5.00;5.00;;;;;30.46;33.46;101101.34;5075560;27;45286;-66
2023/07/11 05:24:22;;;;;;;;;4.75;4.75;;;;;30.37;33.24;101108.03;5076052;27;45576;-65
2023/07/11 05:26:48;;;;;;;;;3.25;3.25;;;;;30.25;33.45;101110.44;5075589;27;47151;-65
2023/07/11 05:29:13;;;;;;;;;4.75;3.50;;;;;30.04;34.53;101102.00;5074877;27;45236;-66
2023/07/11 05:31:38;;;;;;;;;3.75;3.75;;;;;30.19;33.89;101102.03;5074903;28;45402;-65
2023/07/11 05:34:04;;;;;;;;;3.75;3.75;;;;;30.42;33.71;101097.28;5075012;28;57253;-66
2023/07/11 05:36:34;;;;;;;;;1.75;1.75;;;;;30.51;33.36;101085.09;5075411;28;46550;-65
2023/07/11 05:39:03;;;;;;;;;4.00;4.00;;;;;30.38;33.14;101093.16;5075099;27;45405;-64
2023/07/11 05:41:29;;;;;;;;;2.25;2.25;;;;;30.26;33.60;101086.41;5075335;27;45298;-64
2023/07/11 05:43:55;;;;;;;;;1.50;1.50;;;;;30.14;34.04;101086.00;5073883;27;45500;-66
2023/07/11 05:46:21;;;;;;;;;3.75;3.75;;;;;30.39;33.94;101089.34;5071835;27;45532;-67
2023/07/11 05:48:46;;;;;;;;;4.50;2.00;;;;;30.52;32.84;101084.03;5072688;27;45548;-68
2023/07/11 05:51:14;;;;;;;;;3.25;2.50;;;;;30.64;33.48;101082.50;5072799;27;45330;-68
2023/07/11 17:46:27;;;;;;;;;3.00;3.00;;;;;38.16;22.50;100457.41;5157094;27;45540;-71
2023/07/11 17:48:53;;;;;;;;;2.00;2.00;;;;;38.24;22.63;100459.75;5154109;27;45715;-72
2023/07/11 17:51:18;;;;;;;;;2.00;2.00;;;;;38.16;22.47;100452.66;5142018;27;45409;-70
2023/07/11 17:53:43;;;;;;;;;3.00;3.00;;;;;38.25;22.30;100464.25;5142876;27;56427;-70
2023/07/11 17:56:15;;;;;;;;;2.25;2.00;;;;;38.36;22.48;100452.09;5150842;27;46126;-71
2023/07/11 17:58:40;;;;;;;;;1.00;1.00;;;;;38.39;22.78;100445.94;5155637;27;45437;-70
2023/07/11 18:01:15;;;;;;;;;2.00;2.00;;;;;38.51;22.98;100457.06;5157696;27;45406;-72
2023/07/11 18:03:40;;;;;;;;;1.00;1.00;;;;;38.44;22.52;100448.84;5159396;27;46647;-70
2023/07/11 18:06:07;;;;;;;;;2.00;2.00;;;;;38.23;23.44;100456.09;5157445;27;57914;-70
2023/07/11 18:08:32;;;;;;;;;2.25;2.25;;;;;38.44;23.38;100462.00;5148844;27;45350;-70
2023/07/11 18:10:58;;;;;;;;;2.00;2.00;;;;;38.32;23.42;100458.47;5156376;27;45407;-71
2023/07/11 18:13:23;;;;;;;;;1.25;1.25;;;;;38.58;22.99;100450.16;5149246;27;45344;-70
2023/07/11 18:15:49;;;;;;;;;2.50;2.50;;;;;38.53;22.87;100461.31;5160636;27;45291;-72
2023/07/11 18:18:27;;;;;;;;;4.75;3.00;;;;;38.28;23.54;100466.56;5157835;27;45307;-71
2023/07/11 18:20:56;;;;;;;;;3.00;3.00;;;;;37.82;24.15;100446.25;5156005;27;45499;-71
2023/07/11 18:23:23;;;;;;;;;2.00;2.00;;;;;37.95;24.17;100460.97;5157317;27;45297;-72
2023/07/11 18:25:54;;;;;;;;;1.75;1.75;;;;;37.53;24.82;100461.41;5155935;27;45270;-69
2023/07/11 18:28:21;;;;;;;;;4.50;4.00;;;;;37.64;24.59;100454.91;5157384;27;45453;-70
2023/07/11 18:30:47;;;;;;;;;2.50;2.50;;;;;37.87;24.60;100476.25;5157610;27;45376;-68
2023/07/11 18:33:13;;;;;;;;;3.75;2.75;;;;;37.82;24.46;100467.78;5157367;27;45294;-70
2023/07/11 18:35:39;;;;;;;;;2.00;2.00;;;;;37.38;24.72;100462.00;5156824;27;46774;-76
2023/07/11 18:38:20;;;;;;;;;1.00;1.00;;;;;37.24;24.81;100457.00;5157110;27;45308;-72
2023/07/11 18:40:46;;;;;;;;;2.25;2.25;;;;;37.30;24.67;100468.00;5157256;27;45371;-70
2023/07/11 18:43:12;;;;;;;;;3.00;3.00;;;;;37.11;25.32;100460.91;5151197;27;45412;-68
2023/07/11 18:45:44;;;;;;;;;1.00;1.00;;;;;37.03;25.19;100469.69;5151873;27;46324;-69
2023/07/11 18:48:12;;;;;;;;;2.00;2.00;;;;;37.04;25.29;100466.66;5143328;27;45417;-74
2023/07/11 18:50:38;;;;;;;;;3.50;2.75;;;;;36.92;25.79;100459.44;5141972;27;45379;-70
2023/07/11 18:53:04;;;;;;;;;2.25;2.25;;;;;37.02;25.60;100468.84;5140929;27;45530;-68
2023/07/11 18:55:30;;;;;;;;;4.50;3.50;;;;;37.14;25.64;100471.63;5130470;27;50538;-70
2023/07/11 18:57:55;;;;;;;;;3.00;3.00;;;;;36.81;26.02;100486.31;5142333;27;45236;-73
2023/07/11 19:00:28;;;;;;;;;3.25;2.75;;;;;36.75;26.30;100487.31;5142245;27;45408;-71
2023/07/11 19:02:53;;;;;;;;;3.00;2.75;;;;;36.95;26.05;100476.53;5143168;27;45431;-72
2023/07/11 19:05:19;;;;;;;;;3.75;3.75;;;;;37.08;26.22;100490.22;5142344;27;51073;-74
2023/07/11 19:07:44;;;;;;;;;1.50;1.50;;;;;37.03;26.06;100484.53;5143828;27;45424;-72
2023/07/11 19:10:28;;;;;;;;;2.75;2.75;;;;;36.65;26.79;100492.66;5143450;27;45316;-68
2023/07/11 19:12:53;;;;;;;;;2.00;2.00;;;;;36.74;26.31;100488.44;5143065;27;45582;-57
2023/07/11 19:15:21;;;;;;;;;3.50;2.00;;;;;36.84;26.58;100493.34;5140833;27;45464;-53
2023/07/11 19:18:02;;;;;;;;;3.00;3.00;;;;;36.88;26.59;100487.03;5141413;27;45385;-53
2023/07/11 19:20:35;;;;;;;;;1.25;1.25;;;;;36.85;26.65;100512.66;5142406;27;45322;-53
2023/07/11 19:23:11;;;;;;;;;2.50;2.50;;;;;36.68;26.85;100506.16;5130686;27;45479;-55
2023/07/11 19:25:44;;;;;;;;;3.75;2.25;;;;;36.54;27.39;100518.69;5142060;27;45356;-52
2023/07/11 19:28:19;;;;;;;;;3.50;2.75;;;;;36.59;27.47;100525.22;5142861;27;45437;-54
2023/07/11 19:30:47;;;;;;;;;1.00;1.00;;;;;36.19;27.95;100529.84;5142057;27;45387;-55
2023/07/11 19:33:13;;;;;;;;;3.75;3.00;;;;;36.28;27.81;100532.06;5142916;27;45272;-54
2023/07/11 19:35:43;;;;;;;;;1.00;1.00;;;;;36.18;27.70;100528.16;5141725;27;46020;-54
2023/07/11 19:38:15;;;;;;;;;2.25;2.00;;;;;36.34;27.81;100545.03;5142074;27;45435;-57
2023/07/11 19:40:41;;;;;;;;;3.00;3.00;;;;;36.33;27.39;100551.72;5142896;27;45246;-51
2023/07/11 19:43:06;;;;;;;;;1.25;1.25;;;;;36.09;27.54;100561.16;5142305;27;45305;-53
2023/07/11 19:45:41;;;;;;;;;2.75;2.75;;;;;35.87;27.95;100554.47;5138826;27;53544;-59
2023/07/11 19:48:26;;;;;;;;;3.75;3.75;;;;;36.09;27.50;100558.38;5142531;27;45340;-60
2023/07/11 19:50:54;;;;;;;;;3.00;3.00;;;;;36.07;27.83;100551.34;5135004;27;45183;-59
2023/07/11 19:53:21;;;;;;;;;2.00;2.00;;;;;35.84;27.84;100568.91;5142606;27;45313;-59
2023/07/11 19:55:50;;;;;;;;;3.00;3.00;;;;;36.02;27.86;100578.03;5142498;27;46234;-60
2023/07/11 19:58:18;;;;;;;;;2.00;2.00;;;;;36.16;28.59;100573.06;5141404;27;45284;-60
2023/07/11 20:00:45;;;;;;;;;4.50;3.00;;;;;36.20;29.13;100574.31;5143018;27;45201;-58
2023/07/11 20:03:14;;;;;;;;;1.00;1.00;;;;;36.30;29.82;100585.72;5142314;27;45479;-60
2023/07/11 20:05:43;;;;;;;;;2.00;2.00;;;;;36.33;30.16;100603.91;5142333;27;45225;-59
2023/07/11 20:08:23;;;;;;;;;2.00;2.00;;;;;36.31;30.26;100622.88;5142304;27;45346;-59
